KG7KID-6 Weather Reports


time (UTC)temp
F
wind
direction
speed
knots
gust
knots
rain 1hr
in
rain 24hr
in
rain mn
in
humidity
%
barometer
mb
20211025034711 59 18 3.5 7.0 0.00 0.00 0.00 45 931.8
20211025034515 59 18 3.5 7.0 0.00 0.00 0.00 45 931.8
20211025034236 60 15 3.5 7.0 0.00 0.00 0.00 43 931.7
20211025034016 60 15 3.5 7.0 0.00 0.00 0.00 43 931.7
20211025033705 60 27 3.5 5.2 0.00 0.00 0.00 43 931.7
20211025033515 60 27 3.5 5.2 0.00 0.00 0.00 43 931.7
20211025033149 60 12 2.6 4.3 0.00 0.00 0.00 42 931.6
20211025033016 60 12 2.6 4.3 0.00 0.00 0.00 42 931.6
20211025032257 61 47 1.7 3.5 0.00 0.00 0.00 42 931.5
20211025032017 61 47 1.7 3.5 0.00 0.00 0.00 42 931.5
20211025031515 61 0 0.0 2.6 0.00 0.00 0.00 42 931.4
20211025031016 61 97 0.9 2.6 0.00 0.00 0.00 41 931.4
20211025030733 62 0 0.0 2.6 0.00 0.00 0.00 40 931.3
20211025030243 62 0 0.0 0.0 0.00 0.00 0.00 40 931.2
20211025030125 62 0 0.0 0.0 0.00 0.00 0.00 40 931.2
20211025030017 62 0 0.0 0.0 0.00 0.00 0.00 40 931.2
20211025025810 62 0 0.0 0.0 0.00 0.00 0.00 39 931.2
20211025025619 62 0 0.0 0.0 0.00 0.00 0.00 39 931.2
20211025025515 62 0 0.0 0.0 0.00 0.00 0.00 39 931.2
20211025025240 63 0 0.0 0.0 0.00 0.00 0.00 39 931.2
20211025025017 63 0 0.0 0.0 0.00 0.00 0.00 39 931.2
20211025024737 64 0 0.0 0.0 0.00 0.00 0.00 38 931.1
20211025024632 64 0 0.0 0.0 0.00 0.00 0.00 38 931.1
20211025024515 64 0 0.0 0.0 0.00 0.00 0.00 38 931.1
20211025024335 64 0 0.0 0.0 0.00 0.00 0.00 37 931.1
20211025024017 64 0 0.0 0.0 0.00 0.00 0.00 37 931.1
20211025023515 64 0 0.0 0.0 0.00 0.00 0.00 37 931.1
20211025022515 64 0 0.0 0.0 0.00 0.00 0.00 37 930.8
20211025021517 66 0 0.0 3.5 0.00 0.00 0.00 35 930.8
20211025021410 66 0 0.0 1.7 0.00 0.00 0.00 35 930.7
20211025021151 66 0 0.0 1.7 0.00 0.00 0.00 35 930.7
20211025021021 70 141 2.6 8.7 0.00 0.00 0.00 30 930.2
20211025021017 66 0 0.0 1.7 0.00 0.00 0.00 35 930.7
20211025020655 66 0 0.0 1.7 0.00 0.00 0.00 34 930.7
20211025020515 66 0 0.0 1.7 0.00 0.00 0.00 34 930.7
20211025020031 68 0 0.0 4.3 0.00 0.00 0.00 33 930.6
20211025014538 69 0 0.0 2.6 0.00 0.00 0.00 31 930.4
20211025014151 70 0 0.0 7.8 0.00 0.00 0.00 31 930.4
20211025014015 70 0 0.0 7.8 0.00 0.00 0.00 31 930.4
20211025013017 70 143 2.6 7.8 0.00 0.00 0.00 30 930.2
20211025012628 70 141 2.6 8.7 0.00 0.00 0.00 30 930.2
20211025012515 70 141 2.6 8.7 0.00 0.00 0.00 30 930.2
20211025011516 71 133 3.5 11.3 0.00 0.00 0.00 30 929.9
20211025011017 71 141 4.3 11.3 0.00 0.00 0.00 30 929.8
20211025010638 71 137 4.3 10.4 0.00 0.00 0.00 30 929.8
20211025010515 71 137 4.3 10.4 0.00 0.00 0.00 30 929.8
20211025010150 71 135 4.3 10.4 0.00 0.00 0.00 30 929.8
20211025010015 71 135 4.3 10.4 0.00 0.00 0.00 30 929.8
20211025005809 71 140 6.1 8.7 0.00 0.00 0.00 30 929.7
20211025005511 71 140 6.1 8.7 0.00 0.00 0.00 30 929.7
20211025005342 71 140 6.1 8.7 0.00 0.00 0.00 30 929.7
20211025004943 71 140 3.5 8.7 0.00 0.00 0.00 29 929.6
20211025004844 71 140 3.5 8.7 0.00 0.00 0.00 29 929.6
20211025004509 72 137 3.5 9.6 0.00 0.00 0.00 29 929.5
20211025004342 72 137 3.5 9.6 0.00 0.00 0.00 29 929.5
20211025003951 72 139 6.1 10.4 0.00 0.00 0.00 28 929.5
20211025003843 72 139 6.1 10.4 0.00 0.00 0.00 28 929.5
20211025002843 73 140 6.1 12.2 0.00 0.00 0.00 28 929.3
20211025002343 73 139 7.0 12.2 0.00 0.00 0.00 27 929.4
20211025002012 73 139 5.2 11.3 0.00 0.00 0.00 27 929.3
20211025001843 73 139 5.2 11.3 0.00 0.00 0.00 27 929.3
20211025001602 73 134 4.3 10.4 0.00 0.00 0.00 27 929.4
20211025001344 73 134 4.3 10.4 0.00 0.00 0.00 27 929.4
20211025000842 73 142 6.1 10.4 0.00 0.00 0.00 27 929.4
20211025000533 74 141 3.5 10.4 0.00 0.00 0.00 27 929.3
20211025000343 74 141 3.5 10.4 0.00 0.00 0.00 27 929.3
20211025000052 74 149 4.3 11.3 0.00 0.00 0.00 27 929.3
20211024235842 74 149 4.3 11.3 0.00 0.00 0.00 27 929.3
20211024235343 74 139 6.1 11.3 0.00 0.00 0.00 26 929.3
20211024234958 74 142 6.1 10.4 0.00 0.00 0.00 26 929.2
20211024234844 74 142 6.1 10.4 0.00 0.00 0.00 26 929.2
20211024234602 74 155 6.1 12.2 0.00 0.00 0.00 26 929.2
20211024234531 74 155 6.1 12.2 0.00 0.00 0.00 26 929.2
20211024234343 74 155 6.1 12.2 0.00 0.00 0.00 26 929.2
20211024233915 75 145 5.2 12.2 0.00 0.00 0.00 26 929.2
20211024233844 75 145 5.2 12.2 0.00 0.00 0.00 26 929.2
20211024233547 75 136 4.3 10.4 0.00 0.00 0.00 27 929.3
20211024233343 75 136 4.3 10.4 0.00 0.00 0.00 27 929.3
20211024233110 75 131 4.3 9.6 0.00 0.00 0.00 27 929.3
20211024233011 75 131 4.3 9.6 0.00 0.00 0.00 27 929.3
20211024232843 75 131 4.3 9.6 0.00 0.00 0.00 27 929.3
20211024232342 75 142 5.2 9.6 0.00 0.00 0.00 27 929.4
20211024231521 75 145 4.3 10.4 0.00 0.00 0.00 27 929.4
20211024231344 75 145 4.3 10.4 0.00 0.00 0.00 27 929.4
20211024230511 76 140 7.0 10.4 0.00 0.00 0.00 26 929.3
20211024230343 76 140 7.0 10.4 0.00 0.00 0.00 26 929.3
20211024225843 75 142 5.2 11.3 0.00 0.00 0.00 27 929.4
20211024225448 76 146 6.1 11.3 0.00 0.00 0.00 26 929.5
20211024225343 76 146 6.1 11.3 0.00 0.00 0.00 26 929.5
20211024224843 76 135 5.2 10.4 0.00 0.00 0.00 27 929.5
20211024224343 76 132 5.2 10.4 0.00 0.00 0.00 27 929.4
20211024223842 75 145 5.2 9.6 0.00 0.00 0.00 28 929.4
20211024223459 75 139 2.6 8.7 0.00 0.00 0.00 29 929.5
20211024223343 75 139 2.6 8.7 0.00 0.00 0.00 29 929.5
20211024223323 75 160 4.3 8.7 0.00 0.00 0.00 28 929.5
20211024223259 75 140 3.5 7.8 0.00 0.00 0.00 28 929.5
20211024223024 75 160 4.3 8.7 0.00 0.00 0.00 28 929.5
20211024222844 75 160 4.3 8.7 0.00 0.00 0.00 28 929.5
20211024222608 75 140 3.5 7.8 0.00 0.00 0.00 28 929.5
20211024222342 75 140 3.5 7.8 0.00 0.00 0.00 28 929.5
20211024221953 75 135 3.5 8.7 0.00 0.00 0.00 28 929.5
20211024221843 75 135 3.5 8.7 0.00 0.00 0.00 28 929.5
20211024221011 75 139 4.3 9.6 0.00 0.00 0.00 28 929.5
20211024220843 75 139 4.3 9.6 0.00 0.00 0.00 28 929.5
20211024220757 75 133 4.3 7.8 0.00 0.00 0.00 28 929.4
20211024220456 75 133 4.3 7.8 0.00 0.00 0.00 28 929.4
20211024220344 75 133 4.3 7.8 0.00 0.00 0.00 28 929.4
20211024215945 75 135 3.5 7.8 0.00 0.00 0.00 28 929.4
20211024215911 75 136 2.6 7.0 0.00 0.00 0.00 29 929.5
20211024215843 75 135 3.5 7.8 0.00 0.00 0.00 28 929.4
20211024215447 75 136 2.6 7.0 0.00 0.00 0.00 29 929.5
20211024215343 75 136 2.6 7.0 0.00 0.00 0.00 29 929.5
20211024214939 75 153 3.5 8.7 0.00 0.00 0.00 28 929.5
20211024214806 75 153 3.5 8.7 0.00 0.00 0.00 28 929.5
20211024214307 75 150 5.2 8.7 0.00 0.00 0.00 28 929.4
20211024213923 75 137 5.2 8.7 0.00 0.00 0.00 28 929.3
20211024213806 75 137 5.2 8.7 0.00 0.00 0.00 28 929.3
20211024213427 76 145 1.7 8.7 0.00 0.00 0.00 28 929.4
20211024213306 76 145 1.7 8.7 0.00 0.00 0.00 28 929.4
20211024212929 76 150 3.5 8.7 0.00 0.00 0.00 27 929.5
20211024212806 76 150 3.5 8.7 0.00 0.00 0.00 27 929.5
20211024211807 76 148 3.5 11.3 0.00 0.00 0.00 28 929.4
20211024210939 76 127 4.3 11.3 0.00 0.00 0.00 27 929.4
20211024210854 76 127 4.3 11.3 0.00 0.00 0.00 27 929.4
20211024210807 76 127 4.3 11.3 0.00 0.00 0.00 27 929.4
20211024210022 76 136 5.2 10.4 0.00 0.00 0.00 27 929.3
20211024205808 76 136 5.2 10.4 0.00 0.00 0.00 27 929.3
20211024205514 76 145 4.3 10.4 0.00 0.00 0.00 27 929.4
20211024205421 76 145 4.3 10.4 0.00 0.00 0.00 27 929.4
20211024205345 76 145 4.3 10.4 0.00 0.00 0.00 27 929.4
20211024205306 76 145 4.3 10.4 0.00 0.00 0.00 27 929.4
20211024203806 77 135 5.2 11.3 0.00 0.00 0.00 27 929.6
20211024203012 77 185 3.5 9.6 0.00 0.00 0.00 24 929.7
20211024202806 77 185 3.5 9.6 0.00 0.00 0.00 24 929.7
20211024202703 77 193 4.3 8.7 0.00 0.00 0.00 26 929.8
20211024202441 77 150 2.6 8.7 0.00 0.00 0.00 27 929.7
20211024202306 77 150 2.6 8.7 0.00 0.00 0.00 27 929.7
20211024202229 77 193 4.3 8.7 0.00 0.00 0.00 26 929.8
20211024201938 77 193 4.3 8.7 0.00 0.00 0.00 26 929.8
20211024201807 77 193 4.3 8.7 0.00 0.00 0.00 26 929.8
20211024201711 76 158 1.7 9.6 0.00 0.00 0.00 29 930.1
20211024201517 76 207 3.5 9.6 0.00 0.00 0.00 27 930.0
20211024201306 76 207 3.5 9.6 0.00 0.00 0.00 27 930.0
20211024201016 76 158 1.7 9.6 0.00 0.00 0.00 29 930.1
20211024200806 76 158 1.7 9.6 0.00 0.00 0.00 29 930.1
20211024200328 76 150 3.5 12.2 0.00 0.00 0.00 28 930.2
20211024200236 76 158 4.3 12.2 0.00 0.00 0.00 30 930.3
20211024200157 76 160 1.7 8.7 0.00 0.00 0.00 30 930.4
20211024200149 76 194 2.6 7.0 0.00 0.00 0.00 30 930.3
20211024195807 76 158 4.3 12.2 0.00 0.00 0.00 30 930.3
20211024195420 76 160 1.7 8.7 0.00 0.00 0.00 30 930.4
20211024195307 76 160 1.7 8.7 0.00 0.00 0.00 30 930.4
20211024195005 76 191 0.9 7.8 0.00 0.00 0.00 30 930.4
20211024194916 76 194 2.6 7.0 0.00 0.00 0.00 30 930.3
20211024194806 76 194 2.6 7.0 0.00 0.00 0.00 30 930.3
20211024194508 76 191 0.9 7.8 0.00 0.00 0.00 30 930.4
20211024194306 76 191 0.9 7.8 0.00 0.00 0.00 30 930.4
20211024193129 75 115 2.6 9.6 0.00 0.00 0.00 32 930.5
20211024192942 75 115 2.6 9.6 0.00 0.00 0.00 32 930.5
20211024192908 74 131 1.7 9.6 0.00 0.00 0.00 32 930.5
20211024192639 74 131 1.7 9.6 0.00 0.00 0.00 32 930.5
20211024192442 74 131 1.7 9.6 0.00 0.00 0.00 32 930.5
20211024191942 73 118 3.5 7.8 0.00 0.00 0.00 33 930.5
20211024191630 73 215 0.9 7.8 0.00 0.00 0.00 32 930.6
20211024191442 73 215 0.9 7.8 0.00 0.00 0.00 32 930.6
20211024191106 73 147 2.6 8.7 0.00 0.00 0.00 33 930.7
20211024191021 73 147 2.6 8.7 0.00 0.00 0.00 33 930.7
20211024191008 74 125 1.7 8.7 0.00 0.00 0.00 32 930.7
20211024190942 73 147 2.6 8.7 0.00 0.00 0.00 33 930.7
20211024190926 73 217 1.7 6.1 0.00 0.00 0.00 32 930.7
20211024190640 74 125 1.7 8.7 0.00 0.00 0.00 32 930.7
20211024190522 74 125 1.7 8.7 0.00 0.00 0.00 32 930.7
20211024190441 74 125 1.7 8.7 0.00 0.00 0.00 32 930.7
20211024190116 73 217 1.7 6.1 0.00 0.00 0.00 32 930.7
20211024185941 73 217 1.7 6.1 0.00 0.00 0.00 32 930.7
20211024184700 73 158 0.9 8.7 0.00 0.00 0.00 33 930.9
20211024184553 73 158 0.9 8.7 0.00 0.00 0.00 33 930.9
20211024184541 73 146 5.2 11.3 0.00 0.00 0.00 33 931.0
20211024184306 73 146 5.2 11.3 0.00 0.00 0.00 33 931.0
20211024184051 73 146 5.2 11.3 0.00 0.00 0.00 33 931.0
20211024183147 73 155 3.5 8.7 0.00 0.00 0.00 33 931.1
20211024183051 73 155 3.5 8.7 0.00 0.00 0.00 33 931.1
20211024182551 72 109 0.9 7.8 0.00 0.00 0.00 34 931.1
20211024182051 72 0 0.0 7.8 0.00 0.00 0.00 34 931.2
20211024181551 72 165 2.6 7.0 0.00 0.00 0.00 35 931.2
20211024175241 70 210 0.9 3.5 0.00 0.00 0.00 35 931.6
20211024173926 68 0 0.0 2.6 0.00 0.00 0.00 41 931.6
20211024173750 68 0 0.0 2.6 0.00 0.00 0.00 41 931.6
20211024173343 67 0 0.0 4.3 0.00 0.00 0.00 41 931.7
20211024173222 67 0 0.0 4.3 0.00 0.00 0.00 41 931.7
20211024172845 66 203 2.6 4.3 0.00 0.00 0.00 41 931.6
20211024172721 66 203 2.6 4.3 0.00 0.00 0.00 41 931.6
20211024172448 66 218 1.7 4.3 0.00 0.00 0.00 41 931.7
20211024172309 66 218 1.7 4.3 0.00 0.00 0.00 41 931.7
20211024172202 66 218 1.7 4.3 0.00 0.00 0.00 41 931.7
20211024171807 65 0 0.0 3.5 0.00 0.00 0.00 43 931.7
20211024171701 65 0 0.0 3.5 0.00 0.00 0.00 43 931.7
20211024171328 65 196 0.9 5.2 0.00 0.00 0.00 43 931.7
20211024171201 65 196 0.9 5.2 0.00 0.00 0.00 43 931.7
20211024170825 65 165 2.6 5.2 0.00 0.00 0.00 44 931.7
20211024170701 65 165 2.6 5.2 0.00 0.00 0.00 44 931.7
20211024170308 64 221 1.7 4.3 0.00 0.00 0.00 44 931.6
20211024170202 64 221 1.7 4.3 0.00 0.00 0.00 44 931.6
20211024165842 64 190 0.9 4.3 0.00 0.00 0.00 44 931.6
20211024165701 64 190 0.9 4.3 0.00 0.00 0.00 44 931.6
20211024165346 64 210 1.7 5.2 0.00 0.00 0.00 43 931.5
20211024165305 64 214 1.7 4.3 0.00 0.00 0.00 44 931.5
20211024165201 64 214 1.7 4.3 0.00 0.00 0.00 44 931.5
20211024164901 64 210 1.7 5.2 0.00 0.00 0.00 43 931.5
20211024164737 64 210 1.7 5.2 0.00 0.00 0.00 43 931.5
20211024164701 64 210 1.7 5.2 0.00 0.00 0.00 43 931.5
20211024164301 64 190 1.7 5.2 0.00 0.00 0.00 44 931.5
20211024164202 64 190 1.7 5.2 0.00 0.00 0.00 44 931.5
20211024163814 64 0 0.0 2.6 0.00 0.00 0.00 45 931.4
20211024163701 64 0 0.0 2.6 0.00 0.00 0.00 45 931.4
20211024163311 64 0 0.0 0.0 0.00 0.00 0.00 45 931.5
20211024163201 64 0 0.0 0.0 0.00 0.00 0.00 45 931.5
20211024162701 63 0 0.0 0.0 0.00 0.00 0.00 46 931.5
20211024162331 63 0 0.0 0.0 0.00 0.00 0.00 46 931.5
20211024162258 63 0 0.0 0.0 0.00 0.00 0.00 46 931.5
20211024162202 63 0 0.0 0.0 0.00 0.00 0.00 46 931.5
20211024161826 62 0 0.0 0.0 0.00 0.00 0.00 49 931.6
20211024161701 62 0 0.0 0.0 0.00 0.00 0.00 49 931.6
20211024161252 61 0 0.0 0.0 0.00 0.00 0.00 48 931.7
20211024161202 61 0 0.0 0.0 0.00 0.00 0.00 48 931.7
20211024160842 61 0 0.0 0.0 0.00 0.00 0.00 49 931.7
20211024160701 61 0 0.0 0.0 0.00 0.00 0.00 49 931.7
20211024160202 60 0 0.0 0.0 0.00 0.00 0.00 52 931.8
20211024155202 59 0 0.0 0.0 0.00 0.00 0.00 54 931.9
20211024154701 58 0 0.0 0.0 0.00 0.00 0.00 56 931.9
20211024154201 57 0 0.0 0.0 0.00 0.00 0.00 57 932.0
20211024153701 56 0 0.0 0.0 0.00 0.00 0.00 58 932.0
20211024153202 56 0 0.0 0.0 0.00 0.00 0.00 60 932.0
20211024152701 55 0 0.0 0.0 0.00 0.00 0.00 60 932.0
20211024151701 54 0 0.0 0.0 0.00 0.00 0.00 62 931.9
20211024151201 54 0 0.0 0.0 0.00 0.00 0.00 63 932.0
20211024150201 52 0 0.0 0.0 0.00 0.00 0.00 64 931.9
20211024145701 51 0 0.0 0.0 0.00 0.00 0.00 65 931.8
20211024145201 51 0 0.0 0.0 0.00 0.00 0.00 67 931.7
20211024144749 50 0 0.0 0.0 0.00 0.00 0.00 69 931.5
20211024144701 50 0 0.0 0.0 0.00 0.00 0.00 69 931.5
20211024144201 49 0 0.0 0.0 0.00 0.00 0.00 71 931.5
20211024143749 48 0 0.0 0.0 0.00 0.00 0.00 73 931.4
20211024143701 48 0 0.0 0.0 0.00 0.00 0.00 73 931.4
20211024143202 47 0 0.0 0.0 0.00 0.00 0.00 74 931.2
20211024142701 46 0 0.0 0.0 0.00 0.00 0.00 75 931.2
20211024142201 45 0 0.0 2.6 0.00 0.00 0.00 76 931.1
20211024141233 45 16 1.7 4.3 0.00 0.00 0.00 77 930.9
20211024141140 45 16 1.7 4.3 0.00 0.00 0.00 77 930.9
20211024140641 44 0 0.0 1.7 0.00 0.00 0.00 77 930.8
20211024140141 44 0 0.0 3.5 0.00 0.00 0.00 78 930.8
20211024135640 44 0 0.0 3.5 0.00 0.00 0.00 78 930.7
20211024135311 44 0 0.0 3.5 0.00 0.00 0.00 78 930.5
20211024135141 44 0 0.0 3.5 0.00 0.00 0.00 78 930.5
20211024134140 44 0 0.0 0.0 0.00 0.00 0.00 78 930.4
20211024133640 44 0 0.0 0.0 0.00 0.00 0.00 76 930.3
20211024133140 45 0 0.0 0.0 0.00 0.00 0.00 76 930.4
20211024132640 45 0 0.0 0.0 0.00 0.00 0.00 76 930.4
20211024132140 45 0 0.0 0.9 0.00 0.00 0.00 76 930.3
20211024131640 45 0 0.0 0.9 0.00 0.00 0.00 76 930.3
20211024131140 45 0 0.0 4.3 0.00 0.00 0.00 76 930.4
20211024130640 45 0 0.0 4.3 0.00 0.00 0.00 76 930.4
20211024130226 45 0 0.0 3.5 0.00 0.00 0.00 76 930.4
20211024130140 45 0 0.0 3.5 0.00 0.00 0.00 76 930.4
20211024125650 0 10 0.9 3.5 0.00 0.00 0.00 76 930.4
20211024125640 45 10 0.9 3.5 0.00 0.00 0.00 76 930.4
20211024125140 45 0 0.0 2.6 0.00 0.00 0.00 76 930.5
20211024124641 45 0 0.0 0.0 0.00 0.00 0.00 75 930.6
20211024124140 45 0 0.0 2.6 0.00 0.00 0.00 75 930.5
20211024123640 45 0 0.0 2.6 0.00 0.00 0.00 75 930.4
20211024123140 45 0 0.0 0.9 0.00 0.00 0.00 75 930.3
20211024122640 46 0 0.0 0.9 0.00 0.00 0.00 75 930.3
20211024121640 46 0 0.0 1.7 0.00 0.00 0.00 74 930.1
20211024121246 46 0 0.0 0.0 0.00 0.00 0.00 73 930.0
20211024121141 46 0 0.0 0.0 0.00 0.00 0.00 73 930.0
20211024120641 46 0 0.0 0.0 0.00 0.00 0.00 73 929.9
20211024120140 46 0 0.0 0.0 0.00 0.00 0.00 74 929.9
20211024115640 46 0 0.0 0.0 0.00 0.00 0.00 72 929.8
20211024115140 46 0 0.0 0.0 0.00 0.00 0.00 72 929.8
20211024114640 47 0 0.0 0.0 0.00 0.00 0.00 71 929.7
20211024114141 47 0 0.0 0.0 0.00 0.00 0.00 70 929.6
20211024113640 48 0 0.0 2.6 0.00 0.00 0.00 70 929.5
20211024113140 48 0 0.0 2.6 0.00 0.00 0.00 70 929.4
20211024111224 48 0 0.0 1.7 0.00 0.00 0.00 70 929.4
20211024111140 48 0 0.0 1.7 0.00 0.00 0.00 70 929.4
20211024105531 48 0 0.0 1.7 0.00 0.00 0.00 69 929.3
20211024105410 48 0 0.0 1.7 0.00 0.00 0.00 69 929.3
20211024104944 48 0 0.0 2.6 0.00 0.00 0.00 69 929.2
20211024104909 48 0 0.0 2.6 0.00 0.00 0.00 69 929.2
20211024103910 49 0 0.0 2.6 0.00 0.00 0.00 68 929.2
20211024103451 49 0 0.0 0.0 0.00 0.00 0.00 67 929.3
20211024103409 49 0 0.0 0.0 0.00 0.00 0.00 67 929.3
20211024102909 49 0 0.0 0.9 0.00 0.00 0.00 66 929.3
20211024102409 50 0 0.0 1.7 0.00 0.00 0.00 66 929.2
20211024101942 50 0 0.0 1.7 0.00 0.00 0.00 66 929.2
20211024101909 50 0 0.0 1.7 0.00 0.00 0.00 66 929.2
20211024101509 50 0 0.0 2.6 0.00 0.00 0.00 65 929.2
20211024101409 50 0 0.0 2.6 0.00 0.00 0.00 65 929.2
20211024100409 50 324 0.9 2.6 0.00 0.00 0.00 65 929.1
20211024095910 50 0 0.0 2.6 0.00 0.00 0.00 65 929.0
20211024095409 50 0 0.0 0.0 0.00 0.00 0.00 65 929.1
20211024094910 51 0 0.0 1.7 0.00 0.00 0.00 64 929.1
20211024094518 51 0 0.0 3.5 0.00 0.00 0.00 62 929.1
20211024094409 51 0 0.0 3.5 0.00 0.00 0.00 62 929.1
20211024093909 52 345 1.7 3.5 0.00 0.00 0.00 61 928.9
20211024093445 52 0 0.0 0.9 0.00 0.00 0.00 61 929.0
20211024093408 52 0 0.0 0.9 0.00 0.00 0.00 61 929.0
20211024092909 52 0 0.0 2.6 0.00 0.00 0.00 61 929.0
20211024092506 52 355 1.7 3.5 0.00 0.00 0.00 62 929.0
20211024092409 52 355 1.7 3.5 0.00 0.00 0.00 62 929.0
20211024091941 51 355 1.7 3.5 0.00 0.00 0.00 64 929.1
20211024091909 51 355 1.7 3.5 0.00 0.00 0.00 64 929.1
20211024091506 51 355 0.9 2.6 0.00 0.00 0.00 65 929.0
20211024091409 51 355 0.9 2.6 0.00 0.00 0.00 65 929.0
20211024085957 50 0 0.0 0.0 0.00 0.00 0.00 64 928.7
20211024085909 50 0 0.0 0.0 0.00 0.00 0.00 64 928.7
20211024085501 50 0 0.0 0.0 0.00 0.00 0.00 64 928.9
20211024085409 50 0 0.0 0.0 0.00 0.00 0.00 64 928.9
20211024084941 50 0 0.0 0.0 0.00 0.00 0.00 63 929.0
20211024084909 50 0 0.0 0.0 0.00 0.00 0.00 63 929.0
20211024084528 51 0 0.0 0.0 0.00 0.00 0.00 63 929.1
20211024084409 51 0 0.0 0.0 0.00 0.00 0.00 63 929.1
20211024083947 51 0 0.0 0.0 0.00 0.00 0.00 62 929.1
20211024083909 51 0 0.0 0.0 0.00 0.00 0.00 62 929.1
20211024083409 52 0 0.0 0.0 0.00 0.00 0.00 60 928.9
20211024082941 52 0 0.0 0.0 0.00 0.00 0.00 60 929.2
20211024082909 52 0 0.0 0.0 0.00 0.00 0.00 60 929.2
20211024082445 52 0 0.0 0.0 0.00 0.00 0.00 60 929.2
20211024082409 52 0 0.0 0.0 0.00 0.00 0.00 60 929.2
20211024081944 53 0 0.0 0.0 0.00 0.00 0.00 59 929.2
20211024081909 53 0 0.0 0.0 0.00 0.00 0.00 59 929.2
20211024081445 53 0 0.0 0.0 0.00 0.00 0.00 59 929.2
20211024081409 53 0 0.0 0.0 0.00 0.00 0.00 59 929.2
20211024080909 53 0 0.0 0.0 0.00 0.00 0.00 58 929.2
20211024080358 53 0 0.0 3.5 0.00 0.00 0.00 58 929.2
20211024080315 53 0 0.0 3.5 0.00 0.00 0.00 58 929.2
20211024075849 53 0 0.0 3.5 0.00 0.00 0.00 58 929.1
20211024075815 53 0 0.0 3.5 0.00 0.00 0.00 58 929.1
20211024075356 53 7 0.9 2.6 0.00 0.00 0.00 59 929.0
20211024075314 53 7 0.9 2.6 0.00 0.00 0.00 59 929.0
20211024074815 53 0 0.0 2.6 0.00 0.00 0.00 59 928.6
20211024074314 53 0 0.0 0.9 0.00 0.00 0.00 59 928.8
20211024073857 53 0 0.0 4.3 0.00 0.00 0.00 58 929.0
20211024073814 53 0 0.0 4.3 0.00 0.00 0.00 58 929.0
20211024073355 53 21 0.9 4.3 0.00 0.00 0.00 58 928.9
20211024073315 53 21 0.9 4.3 0.00 0.00 0.00 58 928.9
20211024072815 53 24 2.6 6.1 0.00 0.00 0.00 58 928.8
20211024072314 53 22 2.6 7.8 0.00 0.00 0.00 59 928.8
20211024071815 53 14 4.3 8.7 0.00 0.00 0.00 59 928.6
20211024071314 53 20 6.1 8.7 0.00 0.00 0.00 59 928.2
20211024070907 53 21 3.5 6.1 0.00 0.00 0.00 58 928.3
20211024070815 53 21 3.5 6.1 0.00 0.00 0.00 58 928.3
20211024070439 53 41 0.9 4.3 0.00 0.00 0.00 57 928.4
20211024070315 53 41 0.9 4.3 0.00 0.00 0.00 57 928.4
20211024065356 54 20 1.7 4.3 0.00 0.00 0.00 56 928.6
20211024065314 54 20 1.7 4.3 0.00 0.00 0.00 56 928.6
20211024064900 54 0 0.0 2.6 0.00 0.00 0.00 56 928.6
20211024064815 54 0 0.0 2.6 0.00 0.00 0.00 56 928.6
20211024064409 54 0 0.0 2.6 0.00 0.00 0.00 56 928.8
20211024064314 54 0 0.0 2.6 0.00 0.00 0.00 56 928.8
20211024063814 54 0 0.0 4.3 0.00 0.00 0.00 56 928.7
20211024063347 54 19 1.7 4.3 0.00 0.00 0.00 56 928.8
20211024063315 54 19 1.7 4.3 0.00 0.00 0.00 56 928.8
20211024062942 54 7 1.7 4.3 0.00 0.00 0.00 56 928.7
20211024062904 54 7 1.7 4.3 0.00 0.00 0.00 56 928.7
20211024062814 54 7 1.7 4.3 0.00 0.00 0.00 56 928.7
20211024062402 55 14 1.7 4.3 0.00 0.00 0.00 54 928.6
20211024062315 55 14 1.7 4.3 0.00 0.00 0.00 54 928.6
20211024061907 55 0 0.0 4.3 0.00 0.00 0.00 53 928.6
20211024061815 55 0 0.0 4.3 0.00 0.00 0.00 53 928.6
20211024061358 55 18 1.7 6.1 0.00 0.00 0.00 53 928.6
20211024061314 55 18 1.7 6.1 0.00 0.00 0.00 53 928.6
20211024060902 56 18 2.6 7.0 0.00 0.00 0.00 52 928.7
20211024060815 56 18 2.6 7.0 0.00 0.00 0.00 52 928.7
20211024060359 56 28 3.5 7.0 0.00 0.00 0.00 53 928.4
20211024060315 56 28 3.5 7.0 0.00 0.00 0.00 53 928.4
20211024055845 54 20 2.6 6.1 0.00 0.00 0.00 55 928.6
20211024055814 54 20 2.6 6.1 0.00 0.00 0.00 55 928.6
20211024055357 54 16 3.5 6.1 0.00 0.00 0.00 55 928.6
20211024055315 54 16 3.5 6.1 0.00 0.00 0.00 55 928.6
20211024054814 54 0 0.0 3.5 0.00 0.00 0.00 54 928.4
20211024054406 55 25 0.9 5.2 0.00 0.00 0.00 54 928.4
20211024054314 55 25 0.9 5.2 0.00 0.00 0.00 54 928.4
20211024053815 55 21 2.6 5.2 0.00 0.00 0.00 54 928.6
20211024052903 55 17 3.5 6.1 0.00 0.00 0.00 53 928.4
20211024052814 55 17 3.5 6.1 0.00 0.00 0.00 53 928.4
20211024052408 55 20 1.7 5.2 0.00 0.00 0.00 53 928.3
20211024052315 55 20 1.7 5.2 0.00 0.00 0.00 53 928.3
20211024051854 55 9 2.6 5.2 0.00 0.00 0.00 53 928.3
20211024051814 55 9 2.6 5.2 0.00 0.00 0.00 53 928.3
20211024051356 56 342 2.6 4.3 0.00 0.00 0.00 52 928.2
20211024051315 56 342 2.6 4.3 0.00 0.00 0.00 52 928.2
20211024050814 56 0 0.0 2.6 0.00 0.00 0.00 51 928.0
20211024045850 56 0 0.0 4.3 0.00 0.00 0.00 51 928.4
20211024045815 56 0 0.0 4.3 0.00 0.00 0.00 51 928.4
20211024045355 57 4 0.9 5.2 0.00 0.00 0.00 51 928.5
20211024045314 57 4 0.9 5.2 0.00 0.00 0.00 51 928.5
20211024044814 57 342 3.5 5.2 0.00 0.00 0.00 51 928.4
20211024043907 57 352 1.7 3.5 0.00 0.00 0.00 49 928.2
20211024043814 57 352 1.7 3.5 0.00 0.00 0.00 49 928.2
20211024043316 57 65 0.9 5.2 0.00 0.00 0.00 50 928.2
20211024042408 58 23 1.7 7.8 0.00 0.00 0.00 49 928.2
20211024042314 58 23 1.7 7.8 0.00 0.00 0.00 49 928.2
20211024041846 58 23 3.5 7.8 0.00 0.00 0.00 48 928.1
20211024041815 58 23 3.5 7.8 0.00 0.00 0.00 48 928.1
20211024040857 58 19 2.6 7.0 0.00 0.00 0.00 48 928.1
20211024040815 58 19 2.6 7.0 0.00 0.00 0.00 48 928.1
20211024040350 58 18 2.6 4.3 0.00 0.00 0.00 47 928.0
20211024040315 58 18 2.6 4.3 0.00 0.00 0.00 47 928.0
20211024035910 59 19 0.9 4.3 0.00 0.00 0.00 47 927.8
20211024035814 59 19 0.9 4.3 0.00 0.00 0.00 47 927.8
20211024035347 59 21 1.7 7.0 0.00 0.00 0.00 46 927.8
20211024035315 59 21 1.7 7.0 0.00 0.00 0.00 46 927.8